Time;durP1;ratioP1;P1;durP2;ratioP2;P2;SDS_P1;SDS_P2;PMS_P1;PMS_P2;Temp;Humidity;BMP_temperature;BMP_pressure;BME280_temperature;BME280_humidity;BME280_pressure;Samples;Min_cycle;Max_cycle;Signal;HPM_P1;HPM_P2
2022/03/11 00:00:53;;;;;;;1.88;0.50;;;;;;;;;;4956570;28;20069;-66
2022/03/11 00:03:26;;;;;;;2.08;0.30;;;;;;;;;;4972422;28;20047;-62
2022/03/11 00:05:58;;;;;;;1.77;0.25;;;;;;;;;;4975673;28;20065;-62
2022/03/11 00:08:34;;;;;;;1.13;0.28;;;;;;;;;;4997843;28;20054;-63
2022/03/11 00:11:06;;;;;;;3.83;0.30;;;;;;;;;;4984090;28;20054;-63
2022/03/11 00:13:37;;;;;;;0.85;0.10;;;;;;;;;;4989010;28;20088;-64
2022/03/11 00:16:07;;;;;;;0.93;0.20;;;;;;;;;;4990470;28;20054;-63
2022/03/11 00:18:38;;;;;;;0.52;0.15;;;;;;;;;;4929632;28;20071;-64
2022/03/11 00:21:12;;;;;;;1.35;0.45;;;;;;;;;;4933805;29;20059;-63
2022/03/11 00:23:45;;;;;;;2.20;0.20;;;;;;;;;;4934207;29;20056;-64
2022/03/11 00:26:16;;;;;;;1.05;0.13;;;;;;;;;;4933878;29;20432;-63
2022/03/11 00:28:46;;;;;;;4.57;0.40;;;;;;;;;;4933871;29;20055;-64
2022/03/11 00:31:19;;;;;;;1.33;0.13;;;;;;;;;;4937337;29;20059;-62
2022/03/11 00:33:52;;;;;;;0.70;0.10;;;;;;;;;;4937562;29;20500;-63
2022/03/11 00:36:24;;;;;;;0.10;0.03;;;;;;;;;;4952599;29;20063;-63
2022/03/11 00:38:54;;;;;;;1.30;0.20;;;;;;;;;;4936999;29;20419;-64
2022/03/11 00:41:24;;;;;;;1.58;0.13;;;;;;;;;;4914706;29;20418;-63
2022/03/11 00:43:59;;;;;;;1.70;0.30;;;;;;;;;;4894801;29;20056;-64
2022/03/11 00:46:30;;;;;;;1.27;0.17;;;;;;;;;;4902084;29;20068;-63
2022/03/11 00:49:03;;;;;;;0.40;0.08;;;;;;;;;;4907606;29;20504;-60
2022/03/11 00:51:34;;;;;;;0.90;0.17;;;;;;;;;;4926629;29;20428;-60
2022/03/11 00:54:05;;;;;;;0.95;0.30;;;;;;;;;;4933394;29;20199;-61
2022/03/11 00:56:40;;;;;;;12.15;0.45;;;;;;;;;;4944950;29;20051;-61
2022/03/11 00:59:12;;;;;;;0.93;0.40;;;;;;;;;;4952516;29;20407;-61
2022/03/11 01:01:43;;;;;;;0.85;0.40;;;;;;;;;;4952314;29;20055;-61
2022/03/11 01:04:19;;;;;;;9.02;0.57;;;;;;;;;;4952368;29;20066;-61
2022/03/11 01:06:52;;;;;;;0.50;0.20;;;;;;;;;;4952268;29;20051;-64
2022/03/11 01:09:23;;;;;;;0.70;0.40;;;;;;;;;;4952331;29;20059;-63
2022/03/11 01:11:53;;;;;;;1.42;0.25;;;;;;;;;;4952274;29;20062;-63
2022/03/11 01:14:23;;;;;;;0.20;0.10;;;;;;;;;;4952703;29;20460;-63
2022/03/11 01:16:54;;;;;;;8.27;0.20;;;;;;;;;;4944859;29;20055;-63
2022/03/11 01:19:27;;;;;;;1.45;0.22;;;;;;;;;;4952090;29;20074;-64
2022/03/11 01:21:59;;;;;;;2.08;0.35;;;;;;;;;;4952089;29;20063;-63
2022/03/11 01:24:29;;;;;;;0.90;0.10;;;;;;;;;;4947339;28;20058;-63
2022/03/11 01:27:01;;;;;;;2.88;0.20;;;;;;;;;;4970935;28;20098;-63
2022/03/11 01:29:35;;;;;;;1.48;0.50;;;;;;;;;;4971377;28;20063;-63
2022/03/11 01:32:05;;;;;;;1.52;0.50;;;;;;;;;;4923656;28;20510;-63
2022/03/11 01:34:36;;;;;;;3.08;0.30;;;;;;;;;;4983978;28;20069;-63
2022/03/11 01:37:08;;;;;;;3.67;0.50;;;;;;;;;;4970914;28;20050;-64
2022/03/11 01:39:42;;;;;;;1.00;0.20;;;;;;;;;;4971006;28;20066;-64
2022/03/11 01:42:15;;;;;;;0.85;0.10;;;;;;;;;;4923333;28;20050;-64
2022/03/11 01:44:47;;;;;;;1.15;0.40;;;;;;;;;;4951589;28;20058;-63
2022/03/11 01:47:21;;;;;;;;;;;;;;;;;;4932954;29;20451;-63
2022/03/11 01:49:56;;;;;;;0.80;0.30;;;;;;;;;;4951376;28;19926;-63
2022/03/11 01:52:28;;;;;;;1.10;0.40;;;;;;;;;;4949302;28;20059;-64
2022/03/11 01:54:58;;;;;;;0.65;0.32;;;;;;;;;;4977059;28;20522;-64
2022/03/11 01:57:33;;;;;;;2.20;0.50;;;;;;;;;;5009736;28;20058;-64
2022/03/11 02:00:09;;;;;;;0.70;0.20;;;;;;;;;;4954369;28;20051;-64
2022/03/11 02:02:41;;;;;;;0.40;0.20;;;;;;;;;;4970451;28;20058;-65
2022/03/11 02:05:14;;;;;;;2.00;0.30;;;;;;;;;;4970673;28;20062;-66
2022/03/11 02:07:50;;;;;;;0.43;0.30;;;;;;;;;;4970743;28;20058;-67
2022/03/11 02:10:22;;;;;;;1.60;0.95;;;;;;;;;;4950872;29;20050;-64
2022/03/11 02:12:53;;;;;;;1.00;0.20;;;;;;;;;;4935398;29;20059;-64
2022/03/11 02:15:23;;;;;;;1.98;0.30;;;;;;;;;;4950844;29;20055;-64
2022/03/11 02:17:58;;;;;;;2.03;0.30;;;;;;;;;;4934914;29;20180;-65
2022/03/11 02:20:29;;;;;;;1.95;0.30;;;;;;;;;;4934999;29;20063;-64
2022/03/11 02:23:04;;;;;;;4.00;0.50;;;;;;;;;;4926506;29;20051;-65
2022/03/11 02:25:35;;;;;;;1.85;0.30;;;;;;;;;;4946066;28;20052;-65
2022/03/11 02:28:10;;;;;;;3.00;0.40;;;;;;;;;;4950990;28;20059;-65
2022/03/11 02:30:41;;;;;;;2.33;0.28;;;;;;;;;;4950711;29;20043;-65
2022/03/11 02:33:11;;;;;;;1.48;0.47;;;;;;;;;;4950833;29;20070;-64
2022/03/11 02:35:41;;;;;;;6.00;0.43;;;;;;;;;;4918486;29;20062;-65
2022/03/11 02:38:11;;;;;;;3.15;0.32;;;;;;;;;;4964481;28;20050;-65
2022/03/11 02:40:42;;;;;;;1.42;0.30;;;;;;;;;;4973030;28;20058;-65
2022/03/11 02:43:17;;;;;;;0.50;0.30;;;;;;;;;;4973774;28;20073;-66
2022/03/11 02:45:47;;;;;;;1.80;0.57;;;;;;;;;;4969547;28;20070;-66
2022/03/11 02:48:18;;;;;;;3.75;0.40;;;;;;;;;;4994289;28;20463;-65
2022/03/11 02:50:49;;;;;;;2.00;0.30;;;;;;;;;;5008849;28;20068;-64
2022/03/11 02:53:24;;;;;;;0.77;0.40;;;;;;;;;;5009053;28;20057;-64
2022/03/11 02:55:54;;;;;;;2.10;0.45;;;;;;;;;;4992590;28;20054;-63
2022/03/11 02:58:27;;;;;;;3.45;0.40;;;;;;;;;;4938190;28;20057;-63
2022/03/11 03:01:01;;;;;;;7.15;0.35;;;;;;;;;;4981819;28;20073;-61
2022/03/11 03:03:33;;;;;;;1.98;0.20;;;;;;;;;;4989158;28;20058;-62
2022/03/11 03:06:04;;;;;;;3.00;0.20;;;;;;;;;;4988600;28;20049;-61
2022/03/11 03:08:42;;;;;;;1.65;0.30;;;;;;;;;;5002126;28;20058;-61
2022/03/11 03:11:13;;;;;;;2.72;0.60;;;;;;;;;;5008816;28;20050;-61
2022/03/11 03:13:44;;;;;;;1.52;0.20;;;;;;;;;;5008678;28;20066;-60
2022/03/11 03:16:14;;;;;;;3.15;0.30;;;;;;;;;;5008599;28;20191;-61
2022/03/11 03:18:47;;;;;;;1.48;0.10;;;;;;;;;;5008779;28;20054;-61
2022/03/11 03:21:19;;;;;;;0.13;0.13;;;;;;;;;;4976258;28;20058;-61
2022/03/11 03:23:55;;;;;;;0.50;0.20;;;;;;;;;;5019530;28;20060;-60
2022/03/11 03:26:25;;;;;;;1.10;0.25;;;;;;;;;;5032419;28;20501;-60
2022/03/11 03:28:55;;;;;;;2.50;0.20;;;;;;;;;;5056793;28;20620;-59
2022/03/11 03:31:27;;;;;;;1.92;0.20;;;;;;;;;;4979759;28;20041;-60
2022/03/11 03:34:00;;;;;;;1.77;0.20;;;;;;;;;;5008371;28;20501;-61
2022/03/11 03:36:31;;;;;;;1.00;0.55;;;;;;;;;;5008442;28;20065;-61
2022/03/11 03:39:02;;;;;;;2.08;0.20;;;;;;;;;;5008702;28;20233;-62
2022/03/11 03:41:36;;;;;;;1.38;0.30;;;;;;;;;;4988675;28;20050;-61
2022/03/11 03:44:08;;;;;;;2.65;0.22;;;;;;;;;;4988997;28;20062;-62
2022/03/11 03:46:42;;;;;;;0.77;0.30;;;;;;;;;;4988641;28;20058;-62
2022/03/11 03:49:16;;;;;;;3.97;0.40;;;;;;;;;;4988827;28;20058;-62
2022/03/11 03:51:48;;;;;;;2.05;0.40;;;;;;;;;;4941247;28;20057;-61
2022/03/11 03:54:19;;;;;;;2.25;0.40;;;;;;;;;;4988767;28;20058;-60
2022/03/11 03:56:52;;;;;;;2.63;0.28;;;;;;;;;;4957006;28;20058;-61
2022/03/11 03:59:24;;;;;;;0.88;0.20;;;;;;;;;;4988696;28;20126;-61
2022/03/11 04:01:59;;;;;;;2.78;0.30;;;;;;;;;;4988532;28;20062;-60
2022/03/11 04:04:34;;;;;;;4.50;0.50;;;;;;;;;;4988806;28;20058;-59
2022/03/11 04:07:04;;;;;;;1.55;0.35;;;;;;;;;;4949578;29;20055;-60
2022/03/11 04:09:34;;;;;;;0.80;0.20;;;;;;;;;;4977627;28;20104;-59
2022/03/11 04:12:09;;;;;;;1.52;0.75;;;;;;;;;;4982630;28;20081;-59
2022/03/11 04:14:47;;;;;;;1.63;0.65;;;;;;;;;;4920514;29;20055;-59
2022/03/11 04:17:17;;;;;;;4.20;0.35;;;;;;;;;;4934845;29;20432;-60
2022/03/11 04:19:48;;;;;;;3.08;0.30;;;;;;;;;;4967648;28;20074;-59
2022/03/11 04:22:22;;;;;;;1.33;0.30;;;;;;;;;;4972299;28;20065;-59
2022/03/11 04:24:54;;;;;;;3.65;0.38;;;;;;;;;;4972731;28;20061;-59
2022/03/11 04:27:24;;;;;;;3.03;0.20;;;;;;;;;;4972509;28;20066;-59
2022/03/11 04:29:56;;;;;;;2.00;0.40;;;;;;;;;;4972516;28;20062;-59
2022/03/11 04:32:31;;;;;;;3.10;0.47;;;;;;;;;;4972296;28;20077;-59
2022/03/11 04:35:03;;;;;;;1.27;0.50;;;;;;;;;;4972634;28;20042;-59
2022/03/11 04:37:36;;;;;;;2.47;0.40;;;;;;;;;;4972466;28;20055;-59
2022/03/11 04:40:07;;;;;;;2.17;0.47;;;;;;;;;;4972058;28;20535;-59
2022/03/11 04:42:42;;;;;;;1.33;0.40;;;;;;;;;;4956338;28;20050;-59
2022/03/11 04:45:15;;;;;;;4.80;0.50;;;;;;;;;;4985894;28;20058;-59
2022/03/11 04:47:47;;;;;;;1.60;0.57;;;;;;;;;;4991720;28;20534;-60
2022/03/11 04:50:17;;;;;;;2.05;0.40;;;;;;;;;;5036166;28;20057;-59
2022/03/11 04:52:49;;;;;;;1.00;0.45;;;;;;;;;;5052753;28;20059;-60
2022/03/11 04:55:25;;;;;;;5.70;0.60;;;;;;;;;;5008684;28;20067;-60
2022/03/11 04:57:55;;;;;;;2.05;0.45;;;;;;;;;;5075880;28;20487;-59
2022/03/11 05:00:26;;;;;;;1.20;0.40;;;;;;;;;;5093119;28;20040;-59
2022/03/11 05:02:58;;;;;;;0.77;0.40;;;;;;;;;;5050478;28;20096;-59
2022/03/11 05:05:32;;;;;;;1.30;0.30;;;;;;;;;;5050444;28;20390;-60
2022/03/11 05:08:05;;;;;;;2.85;0.40;;;;;;;;;;5050492;28;20060;-59
2022/03/11 05:10:39;;;;;;;0.98;0.40;;;;;;;;;;5001913;28;20104;-59
2022/03/11 05:13:11;;;;;;;;;;;;;;;;;;5051001;28;20053;-59
2022/03/11 05:15:46;;;;;;;0.75;0.40;;;;;;;;;;5050127;28;19920;-59
2022/03/11 05:18:16;;;;;;;3.28;0.45;;;;;;;;;;5017302;28;20064;-59
2022/03/11 05:20:46;;;;;;;2.80;0.50;;;;;;;;;;5050288;28;20064;-59
2022/03/11 05:23:19;;;;;;;3.45;0.77;;;;;;;;;;5029909;28;20418;-59
2022/03/11 05:25:52;;;;;;;1.52;0.50;;;;;;;;;;5030121;28;20584;-60
2022/03/11 05:28:26;;;;;;;2.55;0.40;;;;;;;;;;5029618;28;20072;-60
2022/03/11 05:30:58;;;;;;;1.75;0.50;;;;;;;;;;5030287;28;20045;-59
2022/03/11 05:33:29;;;;;;;7.28;1.25;;;;;;;;;;5030091;28;20110;-59
2022/03/11 05:36:03;;;;;;;0.70;0.40;;;;;;;;;;5029814;28;20113;-59
2022/03/11 05:38:33;;;;;;;2.55;0.30;;;;;;;;;;4981389;28;20638;-59
2022/03/11 05:41:04;;;;;;;2.30;0.40;;;;;;;;;;4985007;28;20057;-59
2022/03/11 05:43:36;;;;;;;6.38;0.30;;;;;;;;;;4957947;28;20046;-59
2022/03/11 05:46:11;;;;;;;1.17;0.30;;;;;;;;;;4958700;28;20137;-59
2022/03/11 05:48:42;;;;;;;2.58;0.60;;;;;;;;;;4990474;28;20054;-60
2022/03/11 05:51:12;;;;;;;4.50;0.57;;;;;;;;;;4958170;28;20073;-59
2022/03/11 05:53:44;;;;;;;5.43;0.40;;;;;;;;;;4990108;28;20062;-59
2022/03/11 05:56:18;;;;;;;1.38;0.50;;;;;;;;;;4958435;28;20561;-59
2022/03/11 05:58:52;;;;;;;1.02;0.38;;;;;;;;;;4935494;29;20051;-59
2022/03/11 06:01:26;;;;;;;1.45;0.57;;;;;;;;;;4948721;28;20077;-59
2022/03/11 06:03:58;;;;;;;0.88;0.57;;;;;;;;;;4970842;28;20050;-59
2022/03/11 06:06:32;;;;;;;2.17;0.90;;;;;;;;;;4922761;28;20057;-59
2022/03/11 06:09:03;;;;;;;1.40;0.38;;;;;;;;;;4970651;28;20053;-59
2022/03/11 06:11:36;;;;;;;5.95;0.68;;;;;;;;;;4970660;28;20527;-60
2022/03/11 06:14:08;;;;;;;1.20;0.63;;;;;;;;;;4970470;28;20054;-59
2022/03/11 06:16:41;;;;;;;2.22;0.57;;;;;;;;;;4954049;28;20059;-59
2022/03/11 06:19:12;;;;;;;6.70;0.70;;;;;;;;;;4984008;28;20411;-59
2022/03/11 06:21:43;;;;;;;5.10;0.88;;;;;;;;;;4989880;28;20538;-59
2022/03/11 06:24:22;;;;;;;4.38;0.47;;;;;;;;;;4974809;28;20046;-59
2022/03/11 06:26:55;;;;;;;;;;;;;;;;;;4954299;28;20042;-59
2022/03/11 06:29:26;;;;;;;4.18;0.90;;;;;;;;;;4970093;28;19929;-59
2022/03/11 06:32:00;;;;;;;8.80;0.68;;;;;;;;;;4970261;28;20058;-59
2022/03/11 06:34:31;;;;;;;1.23;0.73;;;;;;;;;;4950745;29;20044;-59
2022/03/11 06:37:05;;;;;;;1.80;0.70;;;;;;;;;;4951138;29;20508;-59
2022/03/11 06:39:35;;;;;;;5.50;0.82;;;;;;;;;;4950433;28;20455;-59
2022/03/11 06:42:06;;;;;;;2.60;1.20;;;;;;;;;;4934721;29;20047;-59
2022/03/11 06:44:36;;;;;;;3.95;0.70;;;;;;;;;;4951100;29;20059;-59
2022/03/11 06:47:08;;;;;;;2.63;0.63;;;;;;;;;;4934240;29;20055;-60
2022/03/11 06:49:44;;;;;;;4.13;0.50;;;;;;;;;;4931350;29;20416;-59
2022/03/11 06:52:16;;;;;;;4.72;1.10;;;;;;;;;;4931205;29;20062;-60
2022/03/11 06:54:47;;;;;;;2.22;0.57;;;;;;;;;;4900811;29;20056;-60
2022/03/11 06:57:18;;;;;;;;;;;;;;;;;;4950999;29;20047;-59
2022/03/11 06:59:49;;;;;;;2.83;1.05;;;;;;;;;;4950292;29;19923;-59
2022/03/11 07:02:20;;;;;;;3.70;0.40;;;;;;;;;;4950490;29;20559;-60
2022/03/11 07:04:56;;;;;;;3.60;0.57;;;;;;;;;;4924603;29;20056;-60
2022/03/11 07:07:29;;;;;;;2.50;0.40;;;;;;;;;;4912495;29;20856;-59
2022/03/11 07:10:04;;;;;;;5.43;0.52;;;;;;;;;;4927663;29;20082;-60
2022/03/11 07:12:36;;;;;;;3.03;0.68;;;;;;;;;;4899385;29;20587;-60
2022/03/11 07:15:08;;;;;;;2.90;0.60;;;;;;;;;;4862468;29;20060;-60
2022/03/11 07:17:42;;;;;;;3.40;0.60;;;;;;;;;;4908388;29;20064;-59
2022/03/11 07:20:12;;;;;;;2.63;0.43;;;;;;;;;;4893419;29;20065;-59
2022/03/11 07:22:47;;;;;;;4.82;0.65;;;;;;;;;;4893323;29;20053;-59
2022/03/11 07:25:25;;;;;;;0.88;0.50;;;;;;;;;;4939653;29;20508;-60
2022/03/11 07:27:58;;;;;;;1.00;0.63;;;;;;;;;;4948882;28;20055;-60
2022/03/11 07:30:28;;;;;;;2.72;0.60;;;;;;;;;;4988680;28;20046;-59
2022/03/11 07:33:01;;;;;;;3.80;0.63;;;;;;;;;;5003001;28;20073;-59
2022/03/11 07:35:34;;;;;;;3.85;0.65;;;;;;;;;;5008642;28;20561;-59
2022/03/11 07:38:08;;;;;;;2.80;0.93;;;;;;;;;;4993136;28;20761;-60
2022/03/11 07:40:39;;;;;;;3.70;0.90;;;;;;;;;;4969355;28;20059;-60
2022/03/11 07:43:13;;;;;;;1.77;0.77;;;;;;;;;;4967081;28;20763;-59
2022/03/11 07:45:46;;;;;;;2.72;0.60;;;;;;;;;;5008321;28;20061;-60
2022/03/11 07:48:18;;;;;;;2.00;0.80;;;;;;;;;;5008594;28;20541;-59
2022/03/11 07:50:49;;;;;;;6.28;0.80;;;;;;;;;;4969005;28;20050;-60
2022/03/11 07:53:20;;;;;;;5.43;0.73;;;;;;;;;;4972265;28;20439;-59
2022/03/11 07:55:53;;;;;;;3.13;0.60;;;;;;;;;;4968483;28;20055;-59
2022/03/11 07:58:26;;;;;;;5.03;0.77;;;;;;;;;;4915569;29;20156;-59
2022/03/11 08:00:57;;;;;;;2.53;0.60;;;;;;;;;;4934235;29;20055;-59
2022/03/11 08:03:27;;;;;;;8.68;1.35;;;;;;;;;;4918329;29;20071;-60
2022/03/11 08:06:00;;;;;;;3.80;0.60;;;;;;;;;;4934083;29;20408;-59
2022/03/11 08:08:33;;;;;;;2.90;0.75;;;;;;;;;;4921697;29;20527;-59
2022/03/11 08:11:05;;;;;;;4.28;0.65;;;;;;;;;;4940997;29;20051;-60
2022/03/11 08:13:38;;;;;;;2.85;0.80;;;;;;;;;;4968703;28;20050;-59
2022/03/11 08:16:17;;;;;;;3.08;0.60;;;;;;;;;;4921774;29;20051;-59
2022/03/11 08:18:48;;;;;;;4.05;0.70;;;;;;;;;;4948843;28;20050;-60
2022/03/11 08:21:21;;;;;;;4.38;1.00;;;;;;;;;;5001294;28;20049;-60
2022/03/11 08:23:52;;;;;;;8.05;0.90;;;;;;;;;;5031354;28;20206;-60
2022/03/11 08:26:23;;;;;;;10.02;0.88;;;;;;;;;;5031199;28;20049;-59
2022/03/11 08:28:55;;;;;;;4.10;0.80;;;;;;;;;;5031353;28;20525;-59
2022/03/11 08:31:47;;;;;;;2.40;0.75;;;;;;;;;;4991938;28;20061;-59
2022/03/11 08:34:20;;;;;;;1.80;0.70;;;;;;;;;;4991734;28;20054;-59
2022/03/11 08:37:16;;;;;;;6.20;0.88;;;;;;;;;;4997376;28;20061;-59
2022/03/11 08:39:48;;;;;;;1.80;0.90;;;;;;;;;;5051007;28;20543;-59
2022/03/11 08:42:18;;;;;;;6.78;0.70;;;;;;;;;;5001514;28;20045;-59
2022/03/11 08:44:48;;;;;;;2.85;0.65;;;;;;;;;;5050601;28;20056;-59
2022/03/11 08:47:20;;;;;;;3.08;0.55;;;;;;;;;;5050917;28;20045;-59
2022/03/11 08:49:52;;;;;;;3.53;0.80;;;;;;;;;;5050781;28;20049;-59
2022/03/11 08:52:24;;;;;;;12.23;1.33;;;;;;;;;;5050733;28;20064;-59
2022/03/11 08:54:58;;;;;;;1.10;0.63;;;;;;;;;;5050483;28;20049;-59
2022/03/11 08:57:29;;;;;;;7.10;0.82;;;;;;;;;;5050851;28;20052;-59
2022/03/11 09:00:09;;;;;;;4.43;1.42;;;;;;;;;;5001300;28;20387;-59
2022/03/11 09:02:40;;;;;;;4.18;0.98;;;;;;;;;;5050953;28;20086;-59
2022/03/11 09:05:20;;;;;;;2.28;1.00;;;;;;;;;;5049734;28;20056;-59
2022/03/11 09:07:52;;;;;;;5.13;1.83;;;;;;;;;;4985859;28;20057;-60
2022/03/11 09:10:26;;;;;;;54.45;29.65;;;;;;;;;;5090848;28;20617;-60
2022/03/11 09:12:57;;;;;;;9.00;3.08;;;;;;;;;;5050202;28;20053;-59
2022/03/11 09:15:28;;;;;;;15.57;5.38;;;;;;;;;;5050507;28;20057;-59
2022/03/11 09:18:03;;;;;;;8.60;2.78;;;;;;;;;;5050120;28;20057;-59
2022/03/11 09:20:39;;;;;;;14.02;3.47;;;;;;;;;;5050112;28;20045;-59
2022/03/11 09:23:12;;;;;;;12.82;1.90;;;;;;;;;;5050204;28;21189;-59
2022/03/11 09:25:42;;;;;;;8.45;2.08;;;;;;;;;;5013845;28;20411;-59
2022/03/11 09:28:17;;;;;;;13.75;2.67;;;;;;;;;;4981359;28;20410;-59
2022/03/11 09:30:49;;;;;;;8.45;2.15;;;;;;;;;;5030004;28;20057;-59
2022/03/11 09:33:21;;;;;;;10.93;2.30;;;;;;;;;;5030041;28;20046;-60
2022/03/11 09:35:51;;;;;;;37.22;10.07;;;;;;;;;;5030229;28;20472;-60
2022/03/11 09:38:23;;;;;;;56.10;12.15;;;;;;;;;;5046266;28;20053;-60
2022/03/11 09:40:58;;;;;;;43.28;11.15;;;;;;;;;;5029825;28;20072;-61
2022/03/11 09:43:29;;;;;;;45.38;12.60;;;;;;;;;;5029778;28;20378;-60
2022/03/11 09:46:04;;;;;;;40.05;11.38;;;;;;;;;;5029913;28;20053;-60
2022/03/11 09:48:38;;;;;;;41.80;11.02;;;;;;;;;;4997710;28;20430;-59
2022/03/11 09:51:15;;;;;;;45.33;10.48;;;;;;;;;;5015212;28;20532;-60
2022/03/11 09:53:46;;;;;;;44.47;11.90;;;;;;;;;;5069483;28;20048;-59
2022/03/11 09:56:18;;;;;;;32.03;8.45;;;;;;;;;;5069304;28;20045;-60
2022/03/11 09:58:50;;;;;;;26.55;9.07;;;;;;;;;;5053417;28;20055;-60
2022/03/11 10:01:22;;;;;;;26.45;8.13;;;;;;;;;;5069605;28;20052;-60
2022/03/11 10:03:53;;;;;;;25.00;8.20;;;;;;;;;;5031039;28;20504;-60
2022/03/11 10:06:44;;;;;;;31.75;10.57;;;;;;;;;;5036261;28;20059;-60
2022/03/11 10:09:21;;;;;;;32.67;10.60;;;;;;;;;;5070599;28;20052;-60
2022/03/11 10:11:58;;;;;;;28.08;9.48;;;;;;;;;;5068486;28;20098;-60
2022/03/11 10:14:34;;;;;;;32.45;10.52;;;;;;;;;;5052032;28;20060;-60
2022/03/11 10:17:19;;;;;;;21.65;7.80;;;;;;;;;;5028937;28;20387;-60
2022/03/11 10:20:09;;;;;;;16.15;7.32;;;;;;;;;;5012747;28;20053;-60
2022/03/11 10:22:46;;;;;;;16.95;7.00;;;;;;;;;;4999169;28;20049;-60
2022/03/11 10:25:21;;;;;;;12.70;5.50;;;;;;;;;;5013021;28;20046;-60
2022/03/11 10:28:12;;;;;;;11.43;5.50;;;;;;;;;;5028954;28;20076;-59
2022/03/11 10:30:44;;;;;;;9.40;4.40;;;;;;;;;;5009032;28;20058;-60
2022/03/11 10:33:16;;;;;;;12.10;4.43;;;;;;;;;;5009189;28;20064;-59
2022/03/11 10:35:47;;;;;;;7.57;3.63;;;;;;;;;;5009051;28;20058;-60
2022/03/11 10:38:36;;;;;;;8.60;3.95;;;;;;;;;;5009186;28;20502;-60
2022/03/11 10:41:08;;;;;;;8.15;3.90;;;;;;;;;;5008962;28;20411;-59
2022/03/11 10:43:40;;;;;;;9.88;4.30;;;;;;;;;;4954350;28;20050;-60
2022/03/11 10:46:10;;;;;;;7.40;3.53;;;;;;;;;;4937937;28;20062;-59
2022/03/11 10:48:51;;;;;;;7.72;3.95;;;;;;;;;;4972347;28;20050;-60
2022/03/11 10:51:28;;;;;;;11.05;4.70;;;;;;;;;;4918621;28;20589;-59
2022/03/11 10:54:10;;;;;;;12.90;5.22;;;;;;;;;;4950171;28;20059;-60
2022/03/11 10:56:43;;;;;;;15.10;5.05;;;;;;;;;;4950665;28;20063;-60
2022/03/11 10:59:27;;;;;;;11.43;4.47;;;;;;;;;;4912121;29;20416;-62
2022/03/11 11:02:03;;;;;;;12.82;4.43;;;;;;;;;;4912144;29;20059;-62
2022/03/11 11:04:34;;;;;;;14.52;6.00;;;;;;;;;;4912342;29;20067;-61
2022/03/11 11:07:10;;;;;;;9.15;3.95;;;;;;;;;;4912197;29;20060;-62
2022/03/11 11:09:41;;;;;;;11.07;4.97;;;;;;;;;;4893312;29;20060;-61
2022/03/11 11:12:20;;;;;;;15.10;5.75;;;;;;;;;;4911995;29;20048;-61
2022/03/11 11:14:52;;;;;;;18.08;8.00;;;;;;;;;;4911854;29;20052;-61
2022/03/11 11:17:22;;;;;;;16.10;7.88;;;;;;;;;;4896267;29;20059;-61
2022/03/11 11:19:59;;;;;;;17.23;6.70;;;;;;;;;;4912397;29;20052;-62
2022/03/11 11:22:36;;;;;;;11.60;5.40;;;;;;;;;;4931072;29;20066;-61
2022/03/11 11:25:10;;;;;;;14.40;7.38;;;;;;;;;;4915847;29;20070;-61
2022/03/11 11:27:41;;;;;;;9.40;4.15;;;;;;;;;;4952388;28;20051;-61
2022/03/11 11:30:22;;;;;;;8.38;4.13;;;;;;;;;;4973385;28;20062;-61
2022/03/11 11:32:55;;;;;;;11.75;4.78;;;;;;;;;;4972855;28;20062;-61
2022/03/11 11:35:36;;;;;;;12.02;4.35;;;;;;;;;;4973225;28;20059;-62
2022/03/11 11:38:33;;;;;;;9.63;3.80;;;;;;;;;;4996501;28;20643;-61
2022/03/11 11:41:19;;;;;;;8.75;4.30;;;;;;;;;;4992601;28;20054;-61
2022/03/11 11:43:59;;;;;;;12.65;6.30;;;;;;;;;;4977005;28;20065;-62
2022/03/11 11:46:34;;;;;;;10.48;4.85;;;;;;;;;;4954058;28;20055;-61
2022/03/11 11:49:22;;;;;;;11.60;6.18;;;;;;;;;;4977579;28;20053;-61
2022/03/11 11:51:59;;;;;;;7.95;3.70;;;;;;;;;;5012096;28;20562;-61
2022/03/11 11:54:36;;;;;;;9.02;4.00;;;;;;;;;;4979495;28;20061;-61
2022/03/11 11:57:16;;;;;;;9.70;4.45;;;;;;;;;;5012273;28;20067;-61
2022/03/11 11:59:47;;;;;;;9.40;3.40;;;;;;;;;;4972820;28;20059;-61
2022/03/11 12:02:32;;;;;;;12.82;3.65;;;;;;;;;;4973040;28;20066;-61
2022/03/11 12:05:43;;;;;;;7.13;2.92;;;;;;;;;;4988851;28;20050;-61
2022/03/11 12:08:39;;;;;;;4.68;2.78;;;;;;;;;;4986145;28;20046;-61
2022/03/11 12:11:40;;;;;;;6.45;2.88;;;;;;;;;;4976497;28;20054;-61
2022/03/11 12:14:11;;;;;;;9.38;2.75;;;;;;;;;;4992400;28;20054;-61
2022/03/11 12:17:05;;;;;;;6.20;2.72;;;;;;;;;;4991945;28;20590;-61
2022/03/11 12:19:46;;;;;;;5.50;2.85;;;;;;;;;;4992132;28;20043;-61
2022/03/11 12:22:30;;;;;;;7.30;2.67;;;;;;;;;;4992007;28;20054;-61
2022/03/11 12:25:06;;;;;;;7.32;2.75;;;;;;;;;;5025739;28;20509;-62
2022/03/11 12:27:59;;;;;;;6.10;2.35;;;;;;;;;;4998517;28;20057;-61
2022/03/11 12:30:38;;;;;;;7.47;2.90;;;;;;;;;;4991859;28;20058;-61
2022/03/11 12:33:16;;;;;;;5.70;2.33;;;;;;;;;;4991849;28;20077;-61
2022/03/11 12:35:50;;;;;;;14.52;9.02;;;;;;;;;;4972361;28;20459;-61
2022/03/11 12:38:27;;;;;;;7.22;4.00;;;;;;;;;;5006306;28;20061;-62
2022/03/11 12:41:04;;;;;;;9.65;2.33;;;;;;;;;;4948264;28;20507;-61
2022/03/11 12:43:36;;;;;;;3.92;2.35;;;;;;;;;;4963033;28;20064;-61
2022/03/11 12:46:09;;;;;;;4.60;3.25;;;;;;;;;;4978789;28;20050;-61
2022/03/11 12:48:43;;;;;;;6.30;3.20;;;;;;;;;;4994581;28;20061;-61
2022/03/11 12:51:21;;;;;;;4.05;2.03;;;;;;;;;;5011098;28;20046;-62
2022/03/11 12:53:54;;;;;;;4.78;2.63;;;;;;;;;;5010887;28;20062;-61
2022/03/11 12:56:26;;;;;;;3.20;1.60;;;;;;;;;;4991262;28;20051;-62
2022/03/11 12:58:57;;;;;;;3.10;1.50;;;;;;;;;;4991455;28;20051;-61
2022/03/11 13:01:30;;;;;;;5.40;1.92;;;;;;;;;;4991239;28;20503;-62
2022/03/11 13:04:06;;;;;;;2.53;1.70;;;;;;;;;;4991180;28;20046;-62
2022/03/11 13:06:43;;;;;;;2.90;1.50;;;;;;;;;;4991269;28;20058;-62
2022/03/11 13:09:21;;;;;;;3.50;2.03;;;;;;;;;;5028992;28;20528;-62
2022/03/11 13:11:53;;;;;;;5.72;1.80;;;;;;;;;;5014638;28;20083;-62
2022/03/11 13:14:24;;;;;;;7.65;1.88;;;;;;;;;;5049932;28;20057;-62
2022/03/11 13:16:56;;;;;;;3.95;1.80;;;;;;;;;;5052788;28;20052;-62
2022/03/11 13:19:29;;;;;;;;;;;;;;;;;;5053175;28;20393;-62
2022/03/11 13:22:01;;;;;;;3.33;1.80;;;;;;;;;;5051463;28;19959;-62
2022/03/11 13:24:32;;;;;;;6.10;1.70;;;;;;;;;;5052725;28;20493;-62
2022/03/11 13:27:08;;;;;;;4.22;1.75;;;;;;;;;;5052363;28;20052;-62
2022/03/11 13:29:42;;;;;;;2.08;1.20;;;;;;;;;;5052559;28;20044;-62
2022/03/11 13:32:15;;;;;;;2.35;1.63;;;;;;;;;;5052272;28;20048;-62
2022/03/11 13:34:49;;;;;;;5.07;1.88;;;;;;;;;;5033671;28;20041;-62
2022/03/11 13:37:22;;;;;;;3.08;1.52;;;;;;;;;;5050123;28;20544;-62
2022/03/11 13:40:11;;;;;;;4.60;1.60;;;;;;;;;;5050017;28;20068;-63
2022/03/11 13:42:59;;;;;;;4.95;1.55;;;;;;;;;;5049545;28;20059;-62
2022/03/11 13:45:32;;;;;;;2.33;1.33;;;;;;;;;;5016630;28;20437;-62
2022/03/11 13:48:09;;;;;;;2.08;1.40;;;;;;;;;;5049827;28;20045;-62
2022/03/11 13:50:42;;;;;;;1.98;1.17;;;;;;;;;;5049370;28;20406;-62
2022/03/11 13:53:27;;;;;;;3.90;1.40;;;;;;;;;;5049639;28;20057;-62
2022/03/11 13:56:05;;;;;;;4.65;1.73;;;;;;;;;;5049567;28;20053;-62
2022/03/11 13:58:41;;;;;;;2.42;1.50;;;;;;;;;;5009397;28;20506;-62
2022/03/11 14:01:13;;;;;;;3.17;1.52;;;;;;;;;;4978122;28;20046;-63
2022/03/11 14:03:49;;;;;;;3.65;1.73;;;;;;;;;;4993816;28;20058;-62
2022/03/11 14:06:32;;;;;;;5.40;1.50;;;;;;;;;;5009645;28;20114;-62
2022/03/11 14:09:03;;;;;;;5.15;1.70;;;;;;;;;;5009598;28;20045;-63
2022/03/11 14:11:35;;;;;;;8.15;1.40;;;;;;;;;;4993809;28;20065;-63
2022/03/11 14:14:31;;;;;;;7.18;1.42;;;;;;;;;;5009598;28;20069;-63
2022/03/11 14:17:06;;;;;;;4.22;1.48;;;;;;;;;;4970472;28;20066;-63
2022/03/11 14:19:37;;;;;;;2.08;1.25;;;;;;;;;;4954884;28;20055;-63
2022/03/11 14:22:07;;;;;;;2.55;0.98;;;;;;;;;;4954063;28;20047;-63
2022/03/11 14:24:39;;;;;;;3.17;1.00;;;;;;;;;;4970302;28;20055;-63
2022/03/11 14:27:15;;;;;;;2.60;1.10;;;;;;;;;;4970412;28;20054;-63
2022/03/11 14:29:48;;;;;;;1.77;0.80;;;;;;;;;;4970135;28;20055;-62
2022/03/11 14:32:21;;;;;;;4.03;1.10;;;;;;;;;;4970478;28;20047;-63
2022/03/11 14:34:54;;;;;;;3.97;1.23;;;;;;;;;;4969959;28;20055;-63
2022/03/11 14:37:24;;;;;;;2.53;0.70;;;;;;;;;;4969970;28;20058;-63
2022/03/11 14:39:56;;;;;;;2.30;0.65;;;;;;;;;;4969760;28;20055;-63
2022/03/11 14:42:26;;;;;;;1.75;0.70;;;;;;;;;;4973155;28;20061;-63
2022/03/11 14:44:58;;;;;;;1.73;0.70;;;;;;;;;;4953681;28;20065;-63
2022/03/11 14:47:30;;;;;;;0.73;0.50;;;;;;;;;;4977406;28;20055;-64
2022/03/11 14:50:02;;;;;;;;;;;;;;;;;;5030054;28;20068;-63
2022/03/11 14:52:36;;;;;;;2.53;0.57;;;;;;;;;;5040215;28;19928;-63
2022/03/11 14:55:13;;;;;;;;;;;;;;;;;;5074562;28;20044;-63
2022/03/11 14:57:45;;;;;;;1.73;0.50;;;;;;;;;;5087463;28;19920;-63
2022/03/11 15:00:17;;;;;;;1.35;0.40;;;;;;;;;;5076235;28;20059;-64
2022/03/11 15:02:48;;;;;;;;;;;;;;;;;;5088328;28;20047;-64
2022/03/11 15:05:23;;;;;;;6.18;1.88;;;;;;;;;;5088511;28;20316;-63
2022/03/11 15:07:54;;;;;;;1.17;0.52;;;;;;;;;;5088695;28;20048;-63
2022/03/11 15:10:25;;;;;;;0.82;0.47;;;;;;;;;;5088468;28;20385;-64
2022/03/11 15:12:58;;;;;;;3.53;0.80;;;;;;;;;;5028265;28;20057;-64
2022/03/11 15:15:35;;;;;;;0.70;0.40;;;;;;;;;;5028394;28;20057;-63
2022/03/11 15:18:08;;;;;;;1.77;0.50;;;;;;;;;;5028459;28;20065;-63
2022/03/11 15:20:43;;;;;;;0.95;0.57;;;;;;;;;;5028451;28;20046;-63
2022/03/11 15:23:18;;;;;;;1.20;0.43;;;;;;;;;;5028362;28;20046;-64